首页
METAR-TAF:

METAR-TAF

机场 :

倫敦城市機場

伦敦, 英格兰

纬度: 51-30N, 经度: 000-03E, 海拔: 5米

当前天气观测

该预报发布于17分钟前的05:50 UTC
风速4节,风向北转西北,在西转西北之间变化
温度 23°C
湿度 57%
气压 1019 hPa
能见度10公里或以上

METAR: EGLC 080550Z AUTO 33004KT 290V350 9999 NCD 23/14 Q1019

时间: 07:07 (06:07 UTC)

预报

该预报发布于1小时和10分钟前的04:57 UTC
预报有效从08日的 06点(UTC)到 08日的 15点(UTC)
风速3节,风向多变
能见度10公里或以上
1500米以下无云,无积雨云
几率 30% :
短暂存在
从 08日的 06点(UTC)到 08日的 09点(UTC)
阵雨
成为
从 08日的 12点(UTC)到 08日的 15点(UTC)
风速10节,风向

TAF: EGLC 080457Z 0806/0815 VRB03KT CAVOK PROB30 TEMPO 0806/0809 SHRA BECMG 0812/0815 09010KT

超过4000个机场的气象观测和天气预报(METAR&TAF报告)。

可查询的气象台以黄色和红色小点在地图上表示。

将鼠标移到小点上方,可查看气象台名称。

然后点击查看天气观测和预报。

如需切换地图:点击带黑十字的绿色按钮放大地图;点击带横线的绿色按钮缩小地图;或者点击绿色箭头查看邻近地区的地图。


METAR-TAF: